sensor_id;sensor_type;location;lat;lon;timestamp;temperature;humidity
23629;DHT22;11991;57.150;-2.134;2023-04-24T00:01:33;4.80;99.90
23629;DHT22;11991;57.150;-2.134;2023-04-24T00:04:06;4.80;99.90
23629;DHT22;11991;57.150;-2.134;2023-04-24T00:06:38;4.80;99.90
23629;DHT22;11991;57.150;-2.134;2023-04-24T00:09:05;4.80;99.90
23629;DHT22;11991;57.150;-2.134;2023-04-24T00:11:33;4.80;99.90
23629;DHT22;11991;57.150;-2.134;2023-04-24T00:14:01;4.90;99.90
23629;DHT22;11991;57.150;-2.134;2023-04-24T00:16:37;4.90;99.90
23629;DHT22;11991;57.150;-2.134;2023-04-24T00:19:08;4.90;99.90
23629;DHT22;11991;57.150;-2.134;2023-04-24T00:21:38;4.90;99.90
23629;DHT22;11991;57.150;-2.134;2023-04-24T00:24:06;4.90;99.90
23629;DHT22;11991;57.150;-2.134;2023-04-24T00:26:36;4.90;99.90
23629;DHT22;11991;57.150;-2.134;2023-04-24T00:29:04;4.90;99.90
23629;DHT22;11991;57.150;-2.134;2023-04-24T00:31:32;4.90;99.90
23629;DHT22;11991;57.150;-2.134;2023-04-24T00:34:02;4.80;99.90
23629;DHT22;11991;57.150;-2.134;2023-04-24T00:36:30;4.70;99.90
23629;DHT22;11991;57.150;-2.134;2023-04-24T00:39:05;4.50;99.90
23629;DHT22;11991;57.150;-2.134;2023-04-24T00:41:44;4.50;99.90
23629;DHT22;11991;57.150;-2.134;2023-04-24T00:44:17;4.40;99.90
23629;DHT22;11991;57.150;-2.134;2023-04-24T00:46:49;4.20;99.90
23629;DHT22;11991;57.150;-2.134;2023-04-24T00:49:37;4.00;99.90
23629;DHT22;11991;57.150;-2.134;2023-04-24T00:52:09;4.00;99.90
23629;DHT22;11991;57.150;-2.134;2023-04-24T00:54:39;3.90;99.90
23629;DHT22;11991;57.150;-2.134;2023-04-24T00:57:06;3.80;99.90
23629;DHT22;11991;57.150;-2.134;2023-04-24T00:59:37;3.80;99.90
23629;DHT22;11991;57.150;-2.134;2023-04-24T01:06:43;3.80;99.90
23629;DHT22;11991;57.150;-2.134;2023-04-24T01:09:12;3.90;99.90
23629;DHT22;11991;57.150;-2.134;2023-04-24T01:11:42;3.90;99.90
23629;DHT22;11991;57.150;-2.134;2023-04-24T01:14:12;4.00;99.90
23629;DHT22;11991;57.150;-2.134;2023-04-24T01:16:40;4.10;99.90
23629;DHT22;11991;57.150;-2.134;2023-04-24T01:19:10;4.10;99.90
23629;DHT22;11991;57.150;-2.134;2023-04-24T01:21:40;4.10;99.90
23629;DHT22;11991;57.150;-2.134;2023-04-24T01:24:10;4.20;99.90
23629;DHT22;11991;57.150;-2.134;2023-04-24T01:26:38;4.20;99.90
23629;DHT22;11991;57.150;-2.134;2023-04-24T01:29:06;4.20;99.90
23629;DHT22;11991;57.150;-2.134;2023-04-24T01:31:34;4.30;99.90
23629;DHT22;11991;57.150;-2.134;2023-04-24T01:34:04;4.30;99.90
23629;DHT22;11991;57.150;-2.134;2023-04-24T01:36:35;4.40;99.90
23629;DHT22;11991;57.150;-2.134;2023-04-24T01:39:05;4.40;99.90
23629;DHT22;11991;57.150;-2.134;2023-04-24T01:41:41;4.50;99.90
23629;DHT22;11991;57.150;-2.134;2023-04-24T01:44:10;4.60;99.90
23629;DHT22;11991;57.150;-2.134;2023-04-24T01:46:38;4.60;99.90
23629;DHT22;11991;57.150;-2.134;2023-04-24T01:49:06;4.70;99.90
23629;DHT22;11991;57.150;-2.134;2023-04-24T01:51:33;4.70;99.90
23629;DHT22;11991;57.150;-2.134;2023-04-24T01:54:02;4.70;99.90
23629;DHT22;11991;57.150;-2.134;2023-04-24T01:56:33;4.70;99.90
23629;DHT22;11991;57.150;-2.134;2023-04-24T01:59:04;4.60;99.90
23629;DHT22;11991;57.150;-2.134;2023-04-24T02:01:36;4.60;99.90
23629;DHT22;11991;57.150;-2.134;2023-04-24T02:04:05;4.60;99.90
23629;DHT22;11991;57.150;-2.134;2023-04-24T02:06:47;4.50;99.90
23629;DHT22;11991;57.150;-2.134;2023-04-24T02:09:18;4.50;99.90
23629;DHT22;11991;57.150;-2.134;2023-04-24T02:11:47;4.40;99.90
23629;DHT22;11991;57.150;-2.134;2023-04-24T02:14:15;4.30;99.90
23629;DHT22;11991;57.150;-2.134;2023-04-24T02:16:43;4.30;99.90
23629;DHT22;11991;57.150;-2.134;2023-04-24T02:19:11;4.30;99.90
23629;DHT22;11991;57.150;-2.134;2023-04-24T02:21:39;4.40;99.90
23629;DHT22;11991;57.150;-2.134;2023-04-24T02:24:08;4.40;99.90
23629;DHT22;11991;57.150;-2.134;2023-04-24T02:26:35;4.50;99.90
23629;DHT22;11991;57.150;-2.134;2023-04-24T02:29:03;4.50;99.90
23629;DHT22;11991;57.150;-2.134;2023-04-24T02:31:30;4.50;99.90
23629;DHT22;11991;57.150;-2.134;2023-04-24T02:33:58;4.40;99.90
23629;DHT22;11991;57.150;-2.134;2023-04-24T02:36:25;4.40;99.90
23629;DHT22;11991;57.150;-2.134;2023-04-24T02:38:53;4.30;99.90
23629;DHT22;11991;57.150;-2.134;2023-04-24T02:41:20;4.40;99.90
23629;DHT22;11991;57.150;-2.134;2023-04-24T02:48:02;4.40;99.90
23629;DHT22;11991;57.150;-2.134;2023-04-24T02:50:30;4.40;99.90
23629;DHT22;11991;57.150;-2.134;2023-04-24T02:52:59;4.40;99.90
23629;DHT22;11991;57.150;-2.134;2023-04-24T02:55:30;4.50;99.90
23629;DHT22;11991;57.150;-2.134;2023-04-24T02:57:58;4.50;99.90
23629;DHT22;11991;57.150;-2.134;2023-04-24T03:00:26;4.50;99.90
23629;DHT22;11991;57.150;-2.134;2023-04-24T03:02:53;4.50;99.90
23629;DHT22;11991;57.150;-2.134;2023-04-24T03:05:21;4.60;99.90
23629;DHT22;11991;57.150;-2.134;2023-04-24T03:07:49;4.50;99.90
23629;DHT22;11991;57.150;-2.134;2023-04-24T03:10:16;4.60;99.90
23629;DHT22;11991;57.150;-2.134;2023-04-24T03:12:44;4.70;99.90
23629;DHT22;11991;57.150;-2.134;2023-04-24T03:15:11;4.70;99.90
23629;DHT22;11991;57.150;-2.134;2023-04-24T03:17:39;4.70;99.90
23629;DHT22;11991;57.150;-2.134;2023-04-24T03:20:07;4.70;99.90
23629;DHT22;11991;57.150;-2.134;2023-04-24T03:22:38;4.70;99.90
23629;DHT22;11991;57.150;-2.134;2023-04-24T03:25:07;4.70;99.90
23629;DHT22;11991;57.150;-2.134;2023-04-24T03:27:37;4.80;99.90
23629;DHT22;11991;57.150;-2.134;2023-04-24T03:30:11;4.80;99.90
23629;DHT22;11991;57.150;-2.134;2023-04-24T03:32:47;4.80;99.90
23629;DHT22;11991;57.150;-2.134;2023-04-24T03:35:20;4.80;99.90
23629;DHT22;11991;57.150;-2.134;2023-04-24T03:37:49;4.80;99.90
23629;DHT22;11991;57.150;-2.134;2023-04-24T03:40:35;4.90;99.90
23629;DHT22;11991;57.150;-2.134;2023-04-24T03:43:10;4.90;99.90
23629;DHT22;11991;57.150;-2.134;2023-04-24T03:45:37;5.00;99.90
23629;DHT22;11991;57.150;-2.134;2023-04-24T03:48:06;5.00;99.90
23629;DHT22;11991;57.150;-2.134;2023-04-24T03:50:34;5.00;99.90
23629;DHT22;11991;57.150;-2.134;2023-04-24T03:53:02;5.00;99.90
23629;DHT22;11991;57.150;-2.134;2023-04-24T03:55:35;5.00;99.90
23629;DHT22;11991;57.150;-2.134;2023-04-24T03:58:04;5.00;99.90
23629;DHT22;11991;57.150;-2.134;2023-04-24T04:00:35;5.00;99.90
23629;DHT22;11991;57.150;-2.134;2023-04-24T04:03:24;5.10;99.90
23629;DHT22;11991;57.150;-2.134;2023-04-24T04:05:53;5.10;99.90
23629;DHT22;11991;57.150;-2.134;2023-04-24T04:08:21;5.10;99.90
23629;DHT22;11991;57.150;-2.134;2023-04-24T04:10:48;5.10;99.90
23629;DHT22;11991;57.150;-2.134;2023-04-24T04:13:16;5.10;99.90
23629;DHT22;11991;57.150;-2.134;2023-04-24T04:15:44;5.10;99.90
23629;DHT22;11991;57.150;-2.134;2023-04-24T04:18:16;5.10;99.90
23629;DHT22;11991;57.150;-2.134;2023-04-24T04:20:45;5.00;99.90
23629;DHT22;11991;57.150;-2.134;2023-04-24T04:23:14;5.00;99.90
23629;DHT22;11991;57.150;-2.134;2023-04-24T04:25:52;5.00;99.90
23629;DHT22;11991;57.150;-2.134;2023-04-24T04:28:23;5.00;99.90
23629;DHT22;11991;57.150;-2.134;2023-04-24T04:30:57;5.00;99.90
23629;DHT22;11991;57.150;-2.134;2023-04-24T04:33:25;5.00;99.90
23629;DHT22;11991;57.150;-2.134;2023-04-24T04:35:53;4.90;99.90
23629;DHT22;11991;57.150;-2.134;2023-04-24T04:38:20;4.80;99.90
23629;DHT22;11991;57.150;-2.134;2023-04-24T04:41:11;4.80;99.90
23629;DHT22;11991;57.150;-2.134;2023-04-24T04:43:40;4.70;99.90
23629;DHT22;11991;57.150;-2.134;2023-04-24T04:46:08;4.60;99.90
23629;DHT22;11991;57.150;-2.134;2023-04-24T04:49:04;4.70;99.90
23629;DHT22;11991;57.150;-2.134;2023-04-24T04:51:31;4.50;99.90
23629;DHT22;11991;57.150;-2.134;2023-04-24T04:53:59;4.40;99.90
23629;DHT22;11991;57.150;-2.134;2023-04-24T04:56:29;4.40;99.90
23629;DHT22;11991;57.150;-2.134;2023-04-24T04:58:59;4.40;99.90
23629;DHT22;11991;57.150;-2.134;2023-04-24T05:01:27;4.40;99.90
23629;DHT22;11991;57.150;-2.134;2023-04-24T05:03:55;4.50;99.90
23629;DHT22;11991;57.150;-2.134;2023-04-24T05:06:23;4.40;99.90
23629;DHT22;11991;57.150;-2.134;2023-04-24T05:08:51;4.30;99.90
23629;DHT22;11991;57.150;-2.134;2023-04-24T05:11:45;4.00;99.90
23629;DHT22;11991;57.150;-2.134;2023-04-24T05:14:13;3.70;99.90
23629;DHT22;11991;57.150;-2.134;2023-04-24T05:16:42;3.50;99.90
23629;DHT22;11991;57.150;-2.134;2023-04-24T05:19:11;3.30;99.90
23629;DHT22;11991;57.150;-2.134;2023-04-24T05:21:44;3.20;99.90
23629;DHT22;11991;57.150;-2.134;2023-04-24T05:24:12;3.20;99.90
23629;DHT22;11991;57.150;-2.134;2023-04-24T05:27:01;3.20;99.90
23629;DHT22;11991;57.150;-2.134;2023-04-24T05:29:39;3.20;99.90
23629;DHT22;11991;57.150;-2.134;2023-04-24T05:32:08;3.20;99.90
23629;DHT22;11991;57.150;-2.134;2023-04-24T05:34:35;3.30;99.90
23629;DHT22;11991;57.150;-2.134;2023-04-24T05:37:03;3.30;99.90
23629;DHT22;11991;57.150;-2.134;2023-04-24T05:39:35;3.30;99.90
23629;DHT22;11991;57.150;-2.134;2023-04-24T05:42:03;3.40;99.90
23629;DHT22;11991;57.150;-2.134;2023-04-24T05:44:31;3.50;99.90
23629;DHT22;11991;57.150;-2.134;2023-04-24T05:46:59;3.50;99.90
23629;DHT22;11991;57.150;-2.134;2023-04-24T05:49:28;3.60;99.90
23629;DHT22;11991;57.150;-2.134;2023-04-24T05:51:57;3.70;99.90
23629;DHT22;11991;57.150;-2.134;2023-04-24T05:54:24;3.70;99.90
23629;DHT22;11991;57.150;-2.134;2023-04-24T05:56:52;3.80;99.90
23629;DHT22;11991;57.150;-2.134;2023-04-24T05:59:31;3.90;99.90
23629;DHT22;11991;57.150;-2.134;2023-04-24T06:01:59;3.90;99.90
23629;DHT22;11991;57.150;-2.134;2023-04-24T06:04:26;4.00;99.90
23629;DHT22;11991;57.150;-2.134;2023-04-24T06:06:55;4.10;99.90
23629;DHT22;11991;57.150;-2.134;2023-04-24T06:09:23;4.10;99.90
23629;DHT22;11991;57.150;-2.134;2023-04-24T06:11:51;4.20;99.90
23629;DHT22;11991;57.150;-2.134;2023-04-24T06:14:25;4.00;99.90
23629;DHT22;11991;57.150;-2.134;2023-04-24T06:17:15;3.80;99.90
23629;DHT22;11991;57.150;-2.134;2023-04-24T06:19:44;3.60;99.90
23629;DHT22;11991;57.150;-2.134;2023-04-24T06:22:12;3.40;99.90
23629;DHT22;11991;57.150;-2.134;2023-04-24T06:24:40;3.50;99.90
23629;DHT22;11991;57.150;-2.134;2023-04-24T06:27:08;3.40;99.90
23629;DHT22;11991;57.150;-2.134;2023-04-24T06:29:36;3.50;99.90
23629;DHT22;11991;57.150;-2.134;2023-04-24T06:32:04;3.50;99.90
23629;DHT22;11991;57.150;-2.134;2023-04-24T06:34:32;3.60;99.90
23629;DHT22;11991;57.150;-2.134;2023-04-24T06:37:01;3.60;99.90
23629;DHT22;11991;57.150;-2.134;2023-04-24T06:39:29;3.60;99.90
23629;DHT22;11991;57.150;-2.134;2023-04-24T06:41:56;3.70;99.90
23629;DHT22;11991;57.150;-2.134;2023-04-24T06:44:24;3.70;99.90
23629;DHT22;11991;57.150;-2.134;2023-04-24T06:46:52;3.80;99.90
23629;DHT22;11991;57.150;-2.134;2023-04-24T06:49:19;3.80;99.90
23629;DHT22;11991;57.150;-2.134;2023-04-24T06:51:47;3.90;99.90
23629;DHT22;11991;57.150;-2.134;2023-04-24T06:54:15;3.90;99.90
23629;DHT22;11991;57.150;-2.134;2023-04-24T06:56:42;4.00;99.90
23629;DHT22;11991;57.150;-2.134;2023-04-24T06:59:10;3.90;99.90
23629;DHT22;11991;57.150;-2.134;2023-04-24T07:01:37;3.90;99.90
23629;DHT22;11991;57.150;-2.134;2023-04-24T07:04:05;3.90;99.90
23629;DHT22;11991;57.150;-2.134;2023-04-24T07:06:33;3.90;99.90
23629;DHT22;11991;57.150;-2.134;2023-04-24T07:09:00;3.90;99.90
23629;DHT22;11991;57.150;-2.134;2023-04-24T07:11:28;4.00;99.90
23629;DHT22;11991;57.150;-2.134;2023-04-24T07:13:56;4.00;99.90
23629;DHT22;11991;57.150;-2.134;2023-04-24T07:16:23;4.00;99.90
23629;DHT22;11991;57.150;-2.134;2023-04-24T07:18:51;4.00;99.90
23629;DHT22;11991;57.150;-2.134;2023-04-24T07:21:20;4.00;99.90
23629;DHT22;11991;57.150;-2.134;2023-04-24T07:23:48;4.00;99.90
23629;DHT22;11991;57.150;-2.134;2023-04-24T07:26:15;4.00;99.90
23629;DHT22;11991;57.150;-2.134;2023-04-24T07:28:43;4.10;99.90
23629;DHT22;11991;57.150;-2.134;2023-04-24T07:31:11;4.20;99.90
23629;DHT22;11991;57.150;-2.134;2023-04-24T07:33:39;4.20;99.90
23629;DHT22;11991;57.150;-2.134;2023-04-24T07:36:06;4.30;99.90
23629;DHT22;11991;57.150;-2.134;2023-04-24T07:38:34;4.40;99.90
23629;DHT22;11991;57.150;-2.134;2023-04-24T07:41:01;4.40;99.90
23629;DHT22;11991;57.150;-2.134;2023-04-24T07:43:29;4.50;99.90
23629;DHT22;11991;57.150;-2.134;2023-04-24T07:45:57;4.60;99.90
23629;DHT22;11991;57.150;-2.134;2023-04-24T07:48:24;4.60;99.90
23629;DHT22;11991;57.150;-2.134;2023-04-24T07:50:53;4.70;99.90
23629;DHT22;11991;57.150;-2.134;2023-04-24T07:53:22;4.90;99.90
23629;DHT22;11991;57.150;-2.134;2023-04-24T07:55:50;5.00;99.90
23629;DHT22;11991;57.150;-2.134;2023-04-24T08:02:45;5.30;99.90
23629;DHT22;11991;57.150;-2.134;2023-04-24T08:05:13;5.40;99.90
23629;DHT22;11991;57.150;-2.134;2023-04-24T08:07:41;5.50;99.90
23629;DHT22;11991;57.150;-2.134;2023-04-24T08:10:13;5.60;99.90
23629;DHT22;11991;57.150;-2.134;2023-04-24T08:12:40;5.70;99.90
23629;DHT22;11991;57.150;-2.134;2023-04-24T08:15:08;5.90;99.90
23629;DHT22;11991;57.150;-2.134;2023-04-24T08:17:36;6.00;99.90
23629;DHT22;11991;57.150;-2.134;2023-04-24T08:20:04;6.00;99.90
23629;DHT22;11991;57.150;-2.134;2023-04-24T08:22:32;6.00;99.90
23629;DHT22;11991;57.150;-2.134;2023-04-24T08:25:00;6.00;99.90
23629;DHT22;11991;57.150;-2.134;2023-04-24T08:27:27;6.00;99.90
23629;DHT22;11991;57.150;-2.134;2023-04-24T08:29:54;6.10;99.90
23629;DHT22;11991;57.150;-2.134;2023-04-24T08:32:22;6.10;99.90
23629;DHT22;11991;57.150;-2.134;2023-04-24T08:34:49;6.10;99.90
23629;DHT22;11991;57.150;-2.134;2023-04-24T08:37:17;6.10;99.90
23629;DHT22;11991;57.150;-2.134;2023-04-24T08:39:44;6.10;99.90
23629;DHT22;11991;57.150;-2.134;2023-04-24T08:42:13;6.20;99.90
23629;DHT22;11991;57.150;-2.134;2023-04-24T08:44:42;6.20;99.90
23629;DHT22;11991;57.150;-2.134;2023-04-24T08:47:10;6.20;99.90
23629;DHT22;11991;57.150;-2.134;2023-04-24T08:49:40;6.20;99.90
23629;DHT22;11991;57.150;-2.134;2023-04-24T08:52:08;6.20;99.90
23629;DHT22;11991;57.150;-2.134;2023-04-24T08:54:36;6.10;99.90
23629;DHT22;11991;57.150;-2.134;2023-04-24T08:57:04;5.90;99.90
23629;DHT22;11991;57.150;-2.134;2023-04-24T08:59:36;5.80;99.90
23629;DHT22;11991;57.150;-2.134;2023-04-24T09:02:05;5.80;99.90
23629;DHT22;11991;57.150;-2.134;2023-04-24T09:04:40;5.80;99.90
23629;DHT22;11991;57.150;-2.134;2023-04-24T09:07:10;5.80;99.90
23629;DHT22;11991;57.150;-2.134;2023-04-24T09:09:45;5.90;99.90
23629;DHT22;11991;57.150;-2.134;2023-04-24T09:12:12;5.90;99.90
23629;DHT22;11991;57.150;-2.134;2023-04-24T09:14:40;6.20;99.90
23629;DHT22;11991;57.150;-2.134;2023-04-24T09:17:15;6.30;99.90
23629;DHT22;11991;57.150;-2.134;2023-04-24T09:19:43;6.50;99.90
23629;DHT22;11991;57.150;-2.134;2023-04-24T09:22:11;6.60;99.90
23629;DHT22;11991;57.150;-2.134;2023-04-24T09:24:42;6.60;99.90
23629;DHT22;11991;57.150;-2.134;2023-04-24T09:27:11;6.60;99.90
23629;DHT22;11991;57.150;-2.134;2023-04-24T09:30:00;6.60;99.90
23629;DHT22;11991;57.150;-2.134;2023-04-24T09:33:16;6.50;99.90
23629;DHT22;11991;57.150;-2.134;2023-04-24T09:35:53;6.40;99.90
23629;DHT22;11991;57.150;-2.134;2023-04-24T09:38:31;6.40;99.90
23629;DHT22;11991;57.150;-2.134;2023-04-24T09:41:00;6.40;99.90
23629;DHT22;11991;57.150;-2.134;2023-04-24T09:43:53;6.30;99.90
23629;DHT22;11991;57.150;-2.134;2023-04-24T09:47:11;6.40;99.90
23629;DHT22;11991;57.150;-2.134;2023-04-24T09:49:42;6.50;99.90
23629;DHT22;11991;57.150;-2.134;2023-04-24T09:52:11;6.50;99.90
23629;DHT22;11991;57.150;-2.134;2023-04-24T09:54:58;6.50;99.90
23629;DHT22;11991;57.150;-2.134;2023-04-24T09:57:33;6.40;99.90
23629;DHT22;11991;57.150;-2.134;2023-04-24T10:00:22;6.40;99.90
23629;DHT22;11991;57.150;-2.134;2023-04-24T10:02:50;6.50;99.90
23629;DHT22;11991;57.150;-2.134;2023-04-24T10:05:19;6.50;99.90
23629;DHT22;11991;57.150;-2.134;2023-04-24T10:08:16;6.50;99.90
23629;DHT22;11991;57.150;-2.134;2023-04-24T10:10:45;6.50;99.90
23629;DHT22;11991;57.150;-2.134;2023-04-24T10:13:14;6.50;99.90
23629;DHT22;11991;57.150;-2.134;2023-04-24T10:15:42;6.50;99.90
23629;DHT22;11991;57.150;-2.134;2023-04-24T10:18:22;6.50;99.90
23629;DHT22;11991;57.150;-2.134;2023-04-24T10:20:57;6.50;99.90
23629;DHT22;11991;57.150;-2.134;2023-04-24T10:23:30;6.50;99.90
23629;DHT22;11991;57.150;-2.134;2023-04-24T10:26:04;6.60;99.90
23629;DHT22;11991;57.150;-2.134;2023-04-24T10:28:32;6.50;99.90
23629;DHT22;11991;57.150;-2.134;2023-04-24T10:31:01;6.50;99.90
23629;DHT22;11991;57.150;-2.134;2023-04-24T10:33:29;6.60;99.90
23629;DHT22;11991;57.150;-2.134;2023-04-24T10:35:58;6.60;99.90
23629;DHT22;11991;57.150;-2.134;2023-04-24T10:38:28;6.60;99.90
23629;DHT22;11991;57.150;-2.134;2023-04-24T10:41:10;6.70;99.90
23629;DHT22;11991;57.150;-2.134;2023-04-24T10:43:43;6.80;99.90
23629;DHT22;11991;57.150;-2.134;2023-04-24T10:46:20;7.00;99.90
23629;DHT22;11991;57.150;-2.134;2023-04-24T10:48:54;7.20;99.90
23629;DHT22;11991;57.150;-2.134;2023-04-24T10:51:48;7.30;99.90
23629;DHT22;11991;57.150;-2.134;2023-04-24T10:54:59;7.30;99.90
23629;DHT22;11991;57.150;-2.134;2023-04-24T10:58:52;7.40;99.90
23629;DHT22;11991;57.150;-2.134;2023-04-24T11:36:48;7.50;99.90
23629;DHT22;11991;57.150;-2.134;2023-04-24T11:44:10;7.30;99.90
23629;DHT22;11991;57.150;-2.134;2023-04-24T12:11:32;7.10;99.90
23629;DHT22;11991;57.150;-2.134;2023-04-24T12:15:08;6.30;99.90
23629;DHT22;11991;57.150;-2.134;2023-04-24T12:17:36;5.70;99.90
23629;DHT22;11991;57.150;-2.134;2023-04-24T12:20:07;5.60;99.90
23629;DHT22;11991;57.150;-2.134;2023-04-24T12:22:56;5.70;99.90
23629;DHT22;11991;57.150;-2.134;2023-04-24T12:25:28;5.80;99.90
23629;DHT22;11991;57.150;-2.134;2023-04-24T12:33:08;6.70;99.90
23629;DHT22;11991;57.150;-2.134;2023-04-24T12:35:35;6.90;99.90
23629;DHT22;11991;57.150;-2.134;2023-04-24T12:40:35;6.90;99.90
23629;DHT22;11991;57.150;-2.134;2023-04-24T12:43:12;6.90;99.90
23629;DHT22;11991;57.150;-2.134;2023-04-24T12:45:39;6.80;99.90
23629;DHT22;11991;57.150;-2.134;2023-04-24T12:48:07;6.60;99.90
23629;DHT22;11991;57.150;-2.134;2023-04-24T12:50:34;6.10;99.90
23629;DHT22;11991;57.150;-2.134;2023-04-24T12:53:01;5.80;99.90
23629;DHT22;11991;57.150;-2.134;2023-04-24T12:55:29;5.80;99.90
23629;DHT22;11991;57.150;-2.134;2023-04-24T12:57:56;5.80;99.90
23629;DHT22;11991;57.150;-2.134;2023-04-24T13:00:25;5.70;99.90
23629;DHT22;11991;57.150;-2.134;2023-04-24T13:02:53;5.80;99.90
23629;DHT22;11991;57.150;-2.134;2023-04-24T13:05:20;5.90;99.90
23629;DHT22;11991;57.150;-2.134;2023-04-24T13:07:50;6.10;99.90
23629;DHT22;11991;57.150;-2.134;2023-04-24T13:10:18;6.30;99.90
23629;DHT22;11991;57.150;-2.134;2023-04-24T13:12:46;6.60;99.90
23629;DHT22;11991;57.150;-2.134;2023-04-24T13:15:13;6.60;99.90
23629;DHT22;11991;57.150;-2.134;2023-04-24T13:17:40;6.60;99.90
23629;DHT22;11991;57.150;-2.134;2023-04-24T13:20:08;6.70;99.90
23629;DHT22;11991;57.150;-2.134;2023-04-24T13:22:36;6.70;99.90
23629;DHT22;11991;57.150;-2.134;2023-04-24T13:25:04;6.60;99.90
23629;DHT22;11991;57.150;-2.134;2023-04-24T13:27:33;6.60;99.90
23629;DHT22;11991;57.150;-2.134;2023-04-24T13:30:00;6.70;99.90
23629;DHT22;11991;57.150;-2.134;2023-04-24T13:32:27;6.70;99.90
23629;DHT22;11991;57.150;-2.134;2023-04-24T13:34:56;6.70;99.90
23629;DHT22;11991;57.150;-2.134;2023-04-24T13:37:23;6.70;99.90
23629;DHT22;11991;57.150;-2.134;2023-04-24T13:39:51;6.90;99.90
23629;DHT22;11991;57.150;-2.134;2023-04-24T13:42:18;7.00;99.90
23629;DHT22;11991;57.150;-2.134;2023-04-24T13:44:47;7.00;99.90
23629;DHT22;11991;57.150;-2.134;2023-04-24T13:47:14;7.20;99.90
23629;DHT22;11991;57.150;-2.134;2023-04-24T13:49:42;7.40;99.90
23629;DHT22;11991;57.150;-2.134;2023-04-24T13:52:09;7.60;99.90
23629;DHT22;11991;57.150;-2.134;2023-04-24T13:54:37;7.30;99.90
23629;DHT22;11991;57.150;-2.134;2023-04-24T13:57:04;6.80;99.90
23629;DHT22;11991;57.150;-2.134;2023-04-24T13:59:32;6.30;99.90
23629;DHT22;11991;57.150;-2.134;2023-04-24T14:01:59;6.10;99.90
23629;DHT22;11991;57.150;-2.134;2023-04-24T14:04:28;5.90;99.90
23629;DHT22;11991;57.150;-2.134;2023-04-24T14:06:55;5.90;99.90
23629;DHT22;11991;57.150;-2.134;2023-04-24T14:09:23;6.10;99.90
23629;DHT22;11991;57.150;-2.134;2023-04-24T14:11:51;6.30;99.90
23629;DHT22;11991;57.150;-2.134;2023-04-24T14:14:19;6.20;99.90
23629;DHT22;11991;57.150;-2.134;2023-04-24T14:16:46;6.00;99.90
23629;DHT22;11991;57.150;-2.134;2023-04-24T14:19:13;5.90;99.90
23629;DHT22;11991;57.150;-2.134;2023-04-24T14:21:41;5.70;99.90
23629;DHT22;11991;57.150;-2.134;2023-04-24T14:24:08;5.40;99.90
23629;DHT22;11991;57.150;-2.134;2023-04-24T14:26:36;5.30;99.90
23629;DHT22;11991;57.150;-2.134;2023-04-24T14:29:03;5.30;99.90
23629;DHT22;11991;57.150;-2.134;2023-04-24T14:31:41;5.30;99.90
23629;DHT22;11991;57.150;-2.134;2023-04-24T14:34:09;5.40;99.90
23629;DHT22;11991;57.150;-2.134;2023-04-24T14:36:37;5.50;99.90
23629;DHT22;11991;57.150;-2.134;2023-04-24T14:39:04;5.80;99.90
23629;DHT22;11991;57.150;-2.134;2023-04-24T14:41:34;6.10;99.90
23629;DHT22;11991;57.150;-2.134;2023-04-24T14:44:03;6.40;99.90
23629;DHT22;11991;57.150;-2.134;2023-04-24T14:46:31;6.70;99.90
23629;DHT22;11991;57.150;-2.134;2023-04-24T14:48:58;6.90;99.90
23629;DHT22;11991;57.150;-2.134;2023-04-24T14:51:25;7.10;99.90
23629;DHT22;11991;57.150;-2.134;2023-04-24T14:53:53;7.20;99.90
23629;DHT22;11991;57.150;-2.134;2023-04-24T14:56:21;7.20;99.90
23629;DHT22;11991;57.150;-2.134;2023-04-24T14:58:49;7.00;99.90
23629;DHT22;11991;57.150;-2.134;2023-04-24T15:01:16;7.10;99.90
23629;DHT22;11991;57.150;-2.134;2023-04-24T15:03:44;7.30;99.90
23629;DHT22;11991;57.150;-2.134;2023-04-24T15:06:13;7.40;99.90
23629;DHT22;11991;57.150;-2.134;2023-04-24T15:08:40;7.50;99.90
23629;DHT22;11991;57.150;-2.134;2023-04-24T15:11:09;7.40;99.90
23629;DHT22;11991;57.150;-2.134;2023-04-24T15:13:37;7.10;99.90
23629;DHT22;11991;57.150;-2.134;2023-04-24T15:16:05;7.00;99.90
23629;DHT22;11991;57.150;-2.134;2023-04-24T15:18:32;7.10;99.90
23629;DHT22;11991;57.150;-2.134;2023-04-24T15:21:00;7.20;99.90
23629;DHT22;11991;57.150;-2.134;2023-04-24T15:23:27;7.30;99.90
23629;DHT22;11991;57.150;-2.134;2023-04-24T15:25:54;7.40;99.90
23629;DHT22;11991;57.150;-2.134;2023-04-24T15:28:21;7.50;99.90
23629;DHT22;11991;57.150;-2.134;2023-04-24T15:30:49;7.20;99.90
23629;DHT22;11991;57.150;-2.134;2023-04-24T15:33:16;6.20;99.90
23629;DHT22;11991;57.150;-2.134;2023-04-24T15:35:44;5.60;99.90
23629;DHT22;11991;57.150;-2.134;2023-04-24T15:38:12;5.40;99.90
23629;DHT22;11991;57.150;-2.134;2023-04-24T15:40:39;5.40;99.90
23629;DHT22;11991;57.150;-2.134;2023-04-24T15:43:06;5.40;99.90
23629;DHT22;11991;57.150;-2.134;2023-04-24T15:45:34;5.50;99.90
23629;DHT22;11991;57.150;-2.134;2023-04-24T15:48:02;5.60;99.90
23629;DHT22;11991;57.150;-2.134;2023-04-24T15:50:30;5.70;99.90
23629;DHT22;11991;57.150;-2.134;2023-04-24T15:52:57;5.90;99.90
23629;DHT22;11991;57.150;-2.134;2023-04-24T15:55:24;6.10;99.90
23629;DHT22;11991;57.150;-2.134;2023-04-24T15:57:51;6.30;99.90
23629;DHT22;11991;57.150;-2.134;2023-04-24T16:00:19;6.50;99.90
23629;DHT22;11991;57.150;-2.134;2023-04-24T16:02:47;6.60;99.90
23629;DHT22;11991;57.150;-2.134;2023-04-24T16:05:16;6.70;99.90
23629;DHT22;11991;57.150;-2.134;2023-04-24T16:07:45;6.70;99.90
23629;DHT22;11991;57.150;-2.134;2023-04-24T16:10:13;6.70;99.90
23629;DHT22;11991;57.150;-2.134;2023-04-24T16:12:40;6.80;99.90
23629;DHT22;11991;57.150;-2.134;2023-04-24T16:15:08;6.90;99.90
23629;DHT22;11991;57.150;-2.134;2023-04-24T16:17:35;6.70;99.90
23629;DHT22;11991;57.150;-2.134;2023-04-24T16:20:03;6.20;99.90
23629;DHT22;11991;57.150;-2.134;2023-04-24T16:22:31;5.90;99.90
23629;DHT22;11991;57.150;-2.134;2023-04-24T16:24:58;5.70;99.90
23629;DHT22;11991;57.150;-2.134;2023-04-24T16:27:28;5.70;99.90
23629;DHT22;11991;57.150;-2.134;2023-04-24T16:30:10;5.80;99.90
23629;DHT22;11991;57.150;-2.134;2023-04-24T16:32:39;5.90;99.90
23629;DHT22;11991;57.150;-2.134;2023-04-24T16:35:08;6.10;99.90
23629;DHT22;11991;57.150;-2.134;2023-04-24T16:37:35;6.30;99.90
23629;DHT22;11991;57.150;-2.134;2023-04-24T16:40:04;6.30;99.90
23629;DHT22;11991;57.150;-2.134;2023-04-24T16:42:51;6.50;99.90
23629;DHT22;11991;57.150;-2.134;2023-04-24T16:45:23;6.60;99.90
23629;DHT22;11991;57.150;-2.134;2023-04-24T16:47:52;6.80;99.90
23629;DHT22;11991;57.150;-2.134;2023-04-24T16:50:22;6.70;99.90
23629;DHT22;11991;57.150;-2.134;2023-04-24T16:52:51;6.70;99.90
23629;DHT22;11991;57.150;-2.134;2023-04-24T16:55:19;6.70;99.90
23629;DHT22;11991;57.150;-2.134;2023-04-24T16:57:46;6.70;99.90
23629;DHT22;11991;57.150;-2.134;2023-04-24T17:00:14;6.70;99.90
23629;DHT22;11991;57.150;-2.134;2023-04-24T17:02:43;6.70;99.90
23629;DHT22;11991;57.150;-2.134;2023-04-24T17:05:15;6.70;99.90
23629;DHT22;11991;57.150;-2.134;2023-04-24T17:07:43;6.70;99.90
23629;DHT22;11991;57.150;-2.134;2023-04-24T17:10:11;6.70;99.90
23629;DHT22;11991;57.150;-2.134;2023-04-24T17:12:39;6.70;99.90
23629;DHT22;11991;57.150;-2.134;2023-04-24T17:15:08;6.40;99.90
23629;DHT22;11991;57.150;-2.134;2023-04-24T17:17:37;6.00;99.90